Time;durP1;ratioP1;P1;durP2;ratioP2;P2;SDS_P1;SDS_P2;PMS_P1;PMS_P2;Temp;Humidity;BMP_temperature;BMP_pressure;BME280_temperature;BME280_humidity;BME280_pressure;Samples;Min_cycle;Max_cycle;Signal;HPM_P1;HPM_P2
2024/01/25 00:03:25;;;;;;;20.33;3.70;;;;;;;;;;10404743;28;20239;-68
2024/01/25 00:08:25;;;;;;;17.43;4.13;;;;;;;;;;10407985;28;20195;-68
2024/01/25 00:13:25;;;;;;;23.03;3.97;;;;;;;;;;10408090;28;20490;-68
2024/01/25 00:18:26;;;;;;;19.07;4.40;;;;;;;;;;10404186;28;20205;-68
2024/01/25 00:23:26;;;;;;;21.60;3.47;;;;;;;;;;10407658;28;20566;-68
2024/01/25 00:28:28;;;;;;;22.73;4.07;;;;;;;;;;10407467;28;20744;-68
2024/01/25 00:33:28;;;;;;;16.97;4.00;;;;;;;;;;10412463;28;20514;-68
2024/01/25 00:38:28;;;;;;;26.93;4.13;;;;;;;;;;10411939;28;20208;-68
2024/01/25 00:43:29;;;;;;;16.77;3.97;;;;;;;;;;10415169;28;20453;-68
2024/01/25 00:48:29;;;;;;;26.00;3.80;;;;;;;;;;10415098;28;20189;-68
2024/01/25 00:53:29;;;;;;;21.07;3.93;;;;;;;;;;10414429;28;20232;-68
2024/01/25 00:58:29;;;;;;;19.60;3.53;;;;;;;;;;10411120;28;20431;-68
2024/01/25 01:03:30;;;;;;;19.87;3.57;;;;;;;;;;10414515;28;20208;-68
2024/01/25 01:08:30;;;;;;;16.50;3.33;;;;;;;;;;10414192;28;20188;-68
2024/01/25 01:13:30;;;;;;;24.37;4.30;;;;;;;;;;10413342;28;20663;-68
2024/01/25 01:18:30;;;;;;;21.37;3.80;;;;;;;;;;10410128;28;20474;-68
2024/01/25 01:23:31;;;;;;;22.53;4.17;;;;;;;;;;10413860;28;20208;-67
2024/01/25 01:28:31;;;;;;;17.07;3.57;;;;;;;;;;10413496;28;20220;-68
2024/01/25 01:33:31;;;;;;;15.20;3.57;;;;;;;;;;10413105;28;20658;-68
2024/01/25 01:38:31;;;;;;;23.37;3.80;;;;;;;;;;10409469;28;20195;-67
2024/01/25 01:43:31;;;;;;;27.40;4.03;;;;;;;;;;10412349;28;20208;-68
2024/01/25 01:48:31;;;;;;;23.60;3.77;;;;;;;;;;10412902;28;20216;-67
2024/01/25 01:53:32;;;;;;;18.77;3.60;;;;;;;;;;10408570;28;20276;-66
2024/01/25 01:58:33;;;;;;;27.07;4.40;;;;;;;;;;10412158;28;20284;-67
2024/01/25 02:03:33;;;;;;;18.27;3.90;;;;;;;;;;10411449;28;20209;-67
2024/01/25 02:08:33;;;;;;;17.53;4.33;;;;;;;;;;10411876;28;20185;-67
2024/01/25 02:13:33;;;;;;;25.10;3.83;;;;;;;;;;10407917;28;20220;-67
2024/01/25 02:18:34;;;;;;;16.40;3.73;;;;;;;;;;10411496;28;20961;-67
2024/01/25 02:23:34;;;;;;;20.37;3.87;;;;;;;;;;10411027;28;20252;-67
2024/01/25 02:28:34;;;;;;;19.07;3.30;;;;;;;;;;10410750;28;20605;-67
2024/01/25 02:33:34;;;;;;;23.60;4.10;;;;;;;;;;10407280;28;20221;-66
2024/01/25 02:38:35;;;;;;;22.43;4.30;;;;;;;;;;10410550;28;20189;-65
2024/01/25 02:43:35;;;;;;;22.87;4.67;;;;;;;;;;10410669;28;20760;-66
2024/01/25 02:48:35;;;;;;;23.97;3.93;;;;;;;;;;10410122;28;20573;-66
2024/01/25 02:53:35;;;;;;;18.20;3.63;;;;;;;;;;10405587;28;20295;-67
2024/01/25 02:58:35;;;;;;;23.67;4.17;;;;;;;;;;10409087;28;20187;-67
2024/01/25 03:03:36;;;;;;;20.67;3.87;;;;;;;;;;10409768;28;20220;-67
2024/01/25 03:08:36;;;;;;;20.77;3.67;;;;;;;;;;10409787;28;20327;-66
2024/01/25 03:13:36;;;;;;;20.40;3.60;;;;;;;;;;10406341;28;20240;-67
2024/01/25 03:18:36;;;;;;;20.73;4.60;;;;;;;;;;10409489;28;20188;-67
2024/01/25 03:23:38;;;;;;;23.67;4.00;;;;;;;;;;10409222;28;20690;-67
2024/01/25 03:28:40;;;;;;;18.63;4.03;;;;;;;;;;10404762;28;20205;-67
2024/01/25 03:33:40;;;;;;;20.47;4.10;;;;;;;;;;10408928;28;20311;-67
2024/01/25 03:38:40;;;;;;;23.53;4.00;;;;;;;;;;10408731;28;20283;-67
2024/01/25 03:43:40;;;;;;;22.17;4.67;;;;;;;;;;10408785;28;20223;-67
2024/01/25 03:48:40;;;;;;;20.10;3.80;;;;;;;;;;10404795;28;20675;-67
2024/01/25 03:53:42;;;;;;;19.37;5.10;;;;;;;;;;10408541;28;20228;-67
2024/01/25 03:58:43;;;;;;;24.60;4.67;;;;;;;;;;10408159;28;20204;-67
2024/01/25 04:03:43;;;;;;;23.27;4.37;;;;;;;;;;10408062;28;20254;-67
2024/01/25 04:08:43;;;;;;;21.63;3.40;;;;;;;;;;10411662;28;20200;-67
2024/01/25 04:13:43;;;;;;;26.63;5.23;;;;;;;;;;10415999;28;20278;-67
2024/01/25 04:18:43;;;;;;;14.13;3.77;;;;;;;;;;10416077;28;20207;-67
2024/01/25 04:23:44;;;;;;;23.37;5.40;;;;;;;;;;10416150;28;20229;-67
2024/01/25 04:28:44;;;;;;;30.53;4.97;;;;;;;;;;10412238;28;20231;-67
2024/01/25 04:33:44;;;;;;;31.53;5.77;;;;;;;;;;10415602;28;20220;-67
2024/01/25 04:38:44;;;;;;;23.43;4.27;;;;;;;;;;10415955;28;20347;-67
2024/01/25 04:43:46;;;;;;;29.17;5.17;;;;;;;;;;10415641;28;20208;-67
2024/01/25 04:48:46;;;;;;;25.10;5.00;;;;;;;;;;10411265;28;20219;-67
2024/01/25 04:53:47;;;;;;;24.93;4.40;;;;;;;;;;10414923;28;20217;-67
2024/01/25 04:58:47;;;;;;;25.67;4.80;;;;;;;;;;10414349;28;20189;-67
2024/01/25 05:03:47;;;;;;;19.50;4.07;;;;;;;;;;10410782;28;20250;-67
2024/01/25 05:08:47;;;;;;;21.73;3.63;;;;;;;;;;10413961;28;20697;-67
2024/01/25 05:13:47;;;;;;;21.83;4.37;;;;;;;;;;10414092;28;20342;-67
2024/01/25 05:18:48;;;;;;;25.58;4.05;;;;;;;;;;10410449;28;20193;-67
2024/01/25 05:23:48;;;;;;;23.50;4.47;;;;;;;;;;10410176;28;20203;-67
2024/01/25 05:28:48;;;;;;;32.87;5.23;;;;;;;;;;10412865;28;20193;-67
2024/01/25 05:33:48;;;;;;;25.60;4.83;;;;;;;;;;10413114;28;20690;-67
2024/01/25 05:38:49;;;;;;;28.20;4.67;;;;;;;;;;10413004;28;20669;-67
2024/01/25 05:43:49;;;;;;;21.43;4.37;;;;;;;;;;10409014;28;20271;-66
2024/01/25 05:48:49;;;;;;;17.80;4.30;;;;;;;;;;10411561;28;20238;-66
2024/01/25 05:53:49;;;;;;;19.27;4.27;;;;;;;;;;10412091;28;20223;-67
2024/01/25 05:58:49;;;;;;;20.87;4.30;;;;;;;;;;10412651;28;20941;-67
2024/01/25 06:03:50;;;;;;;19.97;4.00;;;;;;;;;;10407041;28;20535;-67
2024/01/25 06:08:50;;;;;;;14.70;3.53;;;;;;;;;;10411879;28;20206;-67
2024/01/25 06:13:50;;;;;;;19.97;3.80;;;;;;;;;;10411445;28;20247;-67
2024/01/25 06:18:50;;;;;;;17.67;3.70;;;;;;;;;;10411263;28;20266;-66
2024/01/25 06:23:50;;;;;;;28.60;4.20;;;;;;;;;;10407178;28;20201;-66
2024/01/25 06:28:51;;;;;;;19.90;3.83;;;;;;;;;;10402680;28;20272;-67
2024/01/25 06:33:52;;;;;;;15.90;3.70;;;;;;;;;;10405140;28;20216;-67
2024/01/25 06:38:52;;;;;;;22.43;4.33;;;;;;;;;;10409988;28;20203;-66
2024/01/25 06:43:53;;;;;;;20.77;3.60;;;;;;;;;;10406799;28;20180;-66
2024/01/25 06:48:53;;;;;;;18.70;3.83;;;;;;;;;;10405560;28;20594;-67
2024/01/25 06:53:53;;;;;;;20.27;4.10;;;;;;;;;;10402524;28;20212;-67
2024/01/25 06:58:53;;;;;;;21.73;4.40;;;;;;;;;;10409998;28;20195;-67
2024/01/25 07:03:54;;;;;;;30.73;4.60;;;;;;;;;;10405352;28;20672;-66
2024/01/25 07:08:54;;;;;;;27.90;4.20;;;;;;;;;;10401201;28;20193;-66
2024/01/25 07:13:54;;;;;;;28.23;3.90;;;;;;;;;;10408891;28;20224;-66
2024/01/25 07:18:55;;;;;;;14.90;3.07;;;;;;;;;;10409744;28;20235;-67
2024/01/25 07:23:55;;;;;;;23.73;3.87;;;;;;;;;;10403854;28;20189;-66
2024/01/25 07:28:58;;;;;;;21.13;3.40;;;;;;;;;;10409176;28;20655;-67
2024/01/25 07:33:58;;;;;;;27.00;4.60;;;;;;;;;;10411772;28;20635;-66
2024/01/25 07:38:58;;;;;;;21.30;3.90;;;;;;;;;;10408113;28;20267;-66
2024/01/25 07:43:58;;;;;;;19.13;3.80;;;;;;;;;;10405183;28;20184;-67
2024/01/25 07:48:58;;;;;;;20.53;3.93;;;;;;;;;;10401076;28;20970;-67
2024/01/25 07:53:58;;;;;;;19.80;3.47;;;;;;;;;;10402420;28;20838;-67
2024/01/25 07:59:00;;;;;;;28.17;3.83;;;;;;;;;;10408655;28;20181;-67
2024/01/25 08:04:00;;;;;;;16.97;4.00;;;;;;;;;;10400714;28;20448;-67
2024/01/25 08:09:00;;;;;;;13.20;3.63;;;;;;;;;;10404251;28;20197;-67
2024/01/25 08:14:00;;;;;;;14.27;2.90;;;;;;;;;;10400290;28;20220;-67
2024/01/25 08:19:00;;;;;;;17.07;3.40;;;;;;;;;;10401254;28;20200;-67
2024/01/25 08:24:00;;;;;;;16.40;4.37;;;;;;;;;;10405984;28;20447;-67
2024/01/25 08:29:01;;;;;;;15.67;2.87;;;;;;;;;;10405755;28;20652;-66
2024/01/25 08:34:01;;;;;;;19.87;3.33;;;;;;;;;;10395002;28;20209;-67
2024/01/25 08:39:01;;;;;;;19.57;3.40;;;;;;;;;;10396288;28;20565;-67
2024/01/25 08:44:02;;;;;;;16.00;3.07;;;;;;;;;;10397072;28;20611;-68
2024/01/25 08:49:08;;;;;;;24.10;3.67;;;;;;;;;;10398103;28;20307;-67
2024/01/25 08:54:08;;;;;;;20.33;3.33;;;;;;;;;;10413627;28;20212;-67
2024/01/25 08:59:09;;;;;;;15.90;3.57;;;;;;;;;;10410918;28;20209;-67
2024/01/25 09:04:09;;;;;;;14.70;3.63;;;;;;;;;;10411328;28;20209;-68
2024/01/25 09:09:10;;;;;;;17.87;3.30;;;;;;;;;;10404665;28;20704;-67
2024/01/25 09:14:10;;;;;;;18.27;4.33;;;;;;;;;;10414377;28;20207;-67
2024/01/25 09:19:11;;;;;;;19.30;3.90;;;;;;;;;;10408882;28;20705;-67
2024/01/25 09:24:11;;;;;;;19.43;3.43;;;;;;;;;;10412284;28;20535;-67
2024/01/25 09:29:11;;;;;;;13.53;2.80;;;;;;;;;;10413316;28;20275;-67
2024/01/25 09:34:11;;;;;;;13.43;2.70;;;;;;;;;;10410882;28;20251;-68
2024/01/25 09:39:11;;;;;;;15.87;3.10;;;;;;;;;;10411646;28;20247;-67
2024/01/25 09:44:12;;;;;;;15.87;3.00;;;;;;;;;;10412593;28;20188;-67
2024/01/25 09:49:12;;;;;;;17.67;3.00;;;;;;;;;;10411820;28;20244;-68
2024/01/25 09:54:13;;;;;;;12.57;3.00;;;;;;;;;;10407562;28;20499;-67
2024/01/25 09:59:13;;;;;;;15.57;2.67;;;;;;;;;;10411022;28;20354;-68
2024/01/25 10:04:14;;;;;;;14.80;2.97;;;;;;;;;;10409776;28;20292;-66
2024/01/25 10:09:14;;;;;;;14.10;2.83;;;;;;;;;;10410074;28;20212;-66
2024/01/25 10:14:14;;;;;;;12.87;2.60;;;;;;;;;;10403316;28;20223;-68
2024/01/25 10:19:14;;;;;;;21.03;3.30;;;;;;;;;;10402477;28;20220;-67
2024/01/25 10:24:14;;;;;;;16.57;3.47;;;;;;;;;;10409596;28;20192;-67
2024/01/25 10:29:15;;;;;;;15.27;2.87;;;;;;;;;;10410169;28;20688;-67
2024/01/25 10:34:16;;;;;;;18.17;2.83;;;;;;;;;;10410458;28;20220;-66
2024/01/25 10:39:17;;;;;;;18.27;2.70;;;;;;;;;;10409074;28;20712;-66
2024/01/25 10:44:19;;;;;;;12.40;2.40;;;;;;;;;;10410985;28;20330;-66
2024/01/25 10:49:19;;;;;;;18.70;2.70;;;;;;;;;;10408218;28;20775;-67
2024/01/25 10:54:19;;;;;;;13.30;2.33;;;;;;;;;;10411221;28;20311;-67
2024/01/25 10:59:20;;;;;;;13.23;3.17;;;;;;;;;;10408538;28;20454;-66
2024/01/25 11:04:20;;;;;;;18.33;3.00;;;;;;;;;;10407271;28;20194;-67
2024/01/25 11:09:21;;;;;;;8.50;2.47;;;;;;;;;;10405006;28;20213;-66
2024/01/25 11:14:21;;;;;;;11.23;2.67;;;;;;;;;;10407438;28;20220;-67
2024/01/25 11:19:21;;;;;;;13.73;2.67;;;;;;;;;;10407149;28;20211;-67
2024/01/25 11:24:23;;;;;;;13.17;3.27;;;;;;;;;;10407775;28;20254;-66
2024/01/25 11:29:24;;;;;;;11.90;2.47;;;;;;;;;;10404603;28;20274;-66
2024/01/25 11:34:24;;;;;;;8.20;2.07;;;;;;;;;;10405823;28;20216;-66
2024/01/25 11:39:24;;;;;;;15.27;2.43;;;;;;;;;;10406900;28;20207;-67
2024/01/25 11:44:25;;;;;;;13.70;2.37;;;;;;;;;;10405952;28;20466;-67
2024/01/25 11:49:25;;;;;;;13.10;2.37;;;;;;;;;;10398399;28;20323;-66
2024/01/25 11:54:25;;;;;;;14.27;2.20;;;;;;;;;;10400512;28;20282;-67
2024/01/25 11:59:26;;;;;;;15.33;2.73;;;;;;;;;;10405927;28;20212;-67
2024/01/25 12:04:27;;;;;;;13.43;2.50;;;;;;;;;;10405261;28;20465;-66
2024/01/25 12:09:27;;;;;;;9.53;2.23;;;;;;;;;;10406328;28;20212;-67
2024/01/25 12:14:28;;;;;;;14.10;2.50;;;;;;;;;;10403320;28;20683;-67
2024/01/25 12:19:28;;;;;;;11.87;2.20;;;;;;;;;;10406557;28;20208;-66
2024/01/25 12:24:30;;;;;;;12.77;2.33;;;;;;;;;;10408796;28;20199;-66
2024/01/25 12:29:31;;;;;;;15.07;2.53;;;;;;;;;;10412861;28;20697;-66
2024/01/25 12:34:31;;;;;;;11.13;2.23;;;;;;;;;;10412075;28;20204;-67
2024/01/25 12:39:31;;;;;;;12.43;2.27;;;;;;;;;;10416558;28;20201;-67
2024/01/25 12:44:31;;;;;;;12.53;2.20;;;;;;;;;;10417469;28;20651;-66
2024/01/25 12:49:32;;;;;;;11.80;2.50;;;;;;;;;;10410540;28;21275;-67
2024/01/25 12:54:32;;;;;;;13.67;2.60;;;;;;;;;;10411819;28;20231;-66
2024/01/25 12:59:33;;;;;;;11.60;2.53;;;;;;;;;;10414528;28;20220;-66
2024/01/25 13:04:33;;;;;;;11.33;2.63;;;;;;;;;;10412408;28;20205;-66
2024/01/25 13:09:36;;;;;;;13.10;2.27;;;;;;;;;;10408200;28;20217;-68
2024/01/25 13:14:36;;;;;;;7.33;2.27;;;;;;;;;;10411929;28;20623;-66
2024/01/25 13:19:36;;;;;;;11.10;2.60;;;;;;;;;;10409515;28;20299;-67
2024/01/25 13:24:37;;;;;;;10.80;2.50;;;;;;;;;;10414182;28;20283;-67
2024/01/25 13:29:37;;;;;;;14.77;2.53;;;;;;;;;;10409985;28;20215;-66
2024/01/25 13:34:37;;;;;;;16.70;2.87;;;;;;;;;;10411038;28;20224;-66
2024/01/25 13:39:37;;;;;;;12.50;1.93;;;;;;;;;;10410986;28;20287;-66
2024/01/25 13:44:38;;;;;;;11.57;2.13;;;;;;;;;;10409348;28;20199;-67
2024/01/25 13:49:38;;;;;;;15.60;2.87;;;;;;;;;;10405303;28;20232;-67
2024/01/25 13:54:38;;;;;;;10.77;2.30;;;;;;;;;;10408071;28;20224;-66
2024/01/25 13:59:39;;;;;;;10.77;2.20;;;;;;;;;;10409903;28;20740;-67
2024/01/25 14:04:39;;;;;;;9.83;2.37;;;;;;;;;;10411127;28;20620;-66
2024/01/25 14:09:40;;;;;;;11.33;2.63;;;;;;;;;;10409783;28;20216;-67
2024/01/25 14:14:41;;;;;;;13.33;2.77;;;;;;;;;;10406262;28;20224;-67
2024/01/25 14:19:41;;;;;;;13.10;2.60;;;;;;;;;;10407391;28;20217;-66
2024/01/25 14:24:41;;;;;;;10.70;2.47;;;;;;;;;;10406830;28;20546;-66
2024/01/25 14:29:41;;;;;;;11.13;2.63;;;;;;;;;;10409836;28;20227;-67
2024/01/25 14:34:41;;;;;;;15.13;2.70;;;;;;;;;;10404756;28;20220;-68
2024/01/25 14:39:42;;;;;;;11.80;2.77;;;;;;;;;;10408908;28;20209;-67
2024/01/25 14:44:45;;;;;;;14.67;2.87;;;;;;;;;;10408794;28;20718;-67
2024/01/25 14:49:45;;;;;;;11.97;3.30;;;;;;;;;;10403066;28;20279;-67
2024/01/25 14:54:45;;;;;;;14.23;2.90;;;;;;;;;;10404975;28;20323;-65
2024/01/25 14:59:46;;;;;;;12.90;2.37;;;;;;;;;;10404957;28;20224;-66
2024/01/25 15:04:47;;;;;;;17.23;2.77;;;;;;;;;;10407408;28;20208;-66
2024/01/25 15:09:48;;;;;;;10.57;2.53;;;;;;;;;;10408401;28;20602;-67
2024/01/25 15:14:48;;;;;;;11.57;3.40;;;;;;;;;;10409174;28;20570;-67
2024/01/25 15:19:49;;;;;;;13.70;2.70;;;;;;;;;;10408385;28;20267;-67
2024/01/25 15:24:49;;;;;;;12.47;3.10;;;;;;;;;;10403473;28;20196;-66
2024/01/25 15:29:49;;;;;;;15.37;3.03;;;;;;;;;;10407942;28;20219;-67
2024/01/25 15:34:49;;;;;;;13.60;2.37;;;;;;;;;;10408140;28;20212;-67
2024/01/25 15:39:49;;;;;;;9.67;2.43;;;;;;;;;;10408910;28;20675;-67
2024/01/25 15:44:50;;;;;;;17.50;2.67;;;;;;;;;;10403821;28;20579;-67
2024/01/25 15:49:50;;;;;;;10.47;2.50;;;;;;;;;;10407082;28;20247;-68
2024/01/25 15:54:50;;;;;;;17.17;2.63;;;;;;;;;;10405829;28;20224;-67
2024/01/25 15:59:51;;;;;;;14.60;3.30;;;;;;;;;;10405840;28;20216;-66
2024/01/25 16:04:51;;;;;;;17.53;3.67;;;;;;;;;;10411214;28;20258;-67
2024/01/25 16:09:51;;;;;;;16.87;3.77;;;;;;;;;;10414917;28;20215;-66
2024/01/25 16:14:53;;;;;;;13.67;3.17;;;;;;;;;;10415190;28;20577;-68
2024/01/25 16:19:54;;;;;;;16.27;2.80;;;;;;;;;;10413966;28;20204;-67
2024/01/25 16:24:54;;;;;;;15.93;2.73;;;;;;;;;;10409841;28;20572;-67
2024/01/25 16:29:54;;;;;;;13.63;3.87;;;;;;;;;;10412195;28;20687;-67
2024/01/25 16:34:54;;;;;;;14.43;2.70;;;;;;;;;;10414184;28;20695;-67
2024/01/25 16:39:54;;;;;;;10.67;2.70;;;;;;;;;;10413221;28;20207;-66
2024/01/25 16:44:55;;;;;;;16.07;2.63;;;;;;;;;;10411880;28;20275;-67
2024/01/25 16:49:55;;;;;;;9.90;2.63;;;;;;;;;;10413739;28;20247;-66
2024/01/25 16:54:55;;;;;;;16.73;3.13;;;;;;;;;;10412939;28;20466;-67
2024/01/25 16:59:55;;;;;;;14.80;2.90;;;;;;;;;;10409377;28;20258;-67
2024/01/25 17:04:56;;;;;;;16.90;3.50;;;;;;;;;;10412386;28;20193;-66
2024/01/25 17:09:56;;;;;;;16.93;3.93;;;;;;;;;;10416823;28;20646;-67
2024/01/25 17:14:56;;;;;;;18.73;4.17;;;;;;;;;;10413302;28;20251;-67
2024/01/25 17:19:56;;;;;;;8.40;3.27;;;;;;;;;;10410692;28;20255;-67
2024/01/25 17:24:56;;;;;;;20.53;3.33;;;;;;;;;;10412342;28;20196;-67
2024/01/25 17:29:57;;;;;;;16.20;3.70;;;;;;;;;;10413242;28;20216;-67
2024/01/25 17:34:57;;;;;;;13.40;4.23;;;;;;;;;;10413198;28;20315;-67
2024/01/25 17:39:57;;;;;;;10.90;3.33;;;;;;;;;;10407073;28;20447;-66
2024/01/25 17:44:57;;;;;;;16.23;4.23;;;;;;;;;;10413078;28;20203;-66
2024/01/25 17:49:57;;;;;;;7.70;2.50;;;;;;;;;;10408713;28;20305;-66
2024/01/25 17:54:57;;;;;;;17.90;3.97;;;;;;;;;;10407483;28;20219;-67
2024/01/25 17:59:58;;;;;;;11.10;3.13;;;;;;;;;;10407700;28;20286;-66
2024/01/25 18:04:58;;;;;;;11.77;3.70;;;;;;;;;;10412604;28;20196;-66
2024/01/25 18:09:58;;;;;;;19.20;3.87;;;;;;;;;;10412056;28;20337;-66
2024/01/25 18:14:58;;;;;;;18.00;4.47;;;;;;;;;;10412180;28;20215;-66
2024/01/25 18:19:58;;;;;;;14.03;3.87;;;;;;;;;;10408234;28;20591;-67
2024/01/25 18:24:58;;;;;;;17.37;3.33;;;;;;;;;;10407798;28;20318;-67
2024/01/25 18:29:59;;;;;;;14.70;3.90;;;;;;;;;;10411423;28;20315;-67
2024/01/25 18:34:59;;;;;;;19.87;4.07;;;;;;;;;;10407246;28;20204;-66
2024/01/25 18:40:00;;;;;;;17.97;4.07;;;;;;;;;;10411067;28;20232;-66
2024/01/25 18:45:02;;;;;;;24.70;4.33;;;;;;;;;;10410616;28;20950;-68
2024/01/25 18:50:03;;;;;;;16.97;3.30;;;;;;;;;;10410314;28;20857;-68
2024/01/25 18:55:03;;;;;;;13.77;3.47;;;;;;;;;;10406639;28;20247;-69
2024/01/25 19:00:04;;;;;;;16.63;3.63;;;;;;;;;;10410095;28;20573;-67
2024/01/25 19:05:05;;;;;;;15.30;3.00;;;;;;;;;;10410156;28;20284;-69
2024/01/25 19:10:05;;;;;;;15.77;3.63;;;;;;;;;;10409638;28;20248;-68
2024/01/25 19:15:07;;;;;;;12.33;3.67;;;;;;;;;;10406178;28;20247;-66
2024/01/25 19:20:08;;;;;;;16.53;4.07;;;;;;;;;;10409369;28;20205;-69
2024/01/25 19:25:09;;;;;;;13.63;3.20;;;;;;;;;;10409150;28;20189;-68
2024/01/25 19:30:09;;;;;;;14.03;3.37;;;;;;;;;;10409144;28;20212;-68
2024/01/25 19:35:09;;;;;;;27.33;4.47;;;;;;;;;;10404528;28;20578;-68
2024/01/25 19:40:10;;;;;;;20.90;4.03;;;;;;;;;;10408753;28;20231;-68
2024/01/25 19:45:10;;;;;;;21.13;5.63;;;;;;;;;;10408709;28;20231;-68
2024/01/25 19:50:10;;;;;;;21.63;5.80;;;;;;;;;;10406801;28;20239;-68
2024/01/25 19:55:11;;;;;;;20.97;4.60;;;;;;;;;;10406593;28;21070;-68
2024/01/25 20:00:11;;;;;;;12.93;3.77;;;;;;;;;;10408159;28;20295;-68
2024/01/25 20:05:12;;;;;;;19.63;5.43;;;;;;;;;;10407527;28;20193;-68
2024/01/25 20:10:12;;;;;;;14.47;4.50;;;;;;;;;;10404288;28;20200;-68
2024/01/25 20:15:14;;;;;;;19.13;5.03;;;;;;;;;;10408033;28;20230;-68
2024/01/25 20:20:15;;;;;;;20.70;5.03;;;;;;;;;;10410361;28;20757;-68
2024/01/25 20:25:15;;;;;;;20.13;4.07;;;;;;;;;;10409716;28;20343;-68
2024/01/25 20:30:15;;;;;;;23.67;5.73;;;;;;;;;;10404004;28;20725;-68
2024/01/25 20:35:15;;;;;;;13.07;3.53;;;;;;;;;;10407734;28;20223;-68
2024/01/25 20:40:15;;;;;;;15.80;3.77;;;;;;;;;;10410881;28;20716;-68
2024/01/25 20:45:17;;;;;;;19.80;4.40;;;;;;;;;;10407505;28;20196;-68
2024/01/25 20:50:17;;;;;;;17.37;4.20;;;;;;;;;;10408355;28;20255;-68
2024/01/25 20:55:17;;;;;;;19.20;4.50;;;;;;;;;;10412849;28;20303;-68
2024/01/25 21:00:19;;;;;;;19.87;4.67;;;;;;;;;;10412088;28;20208;-68
2024/01/25 21:05:20;;;;;;;17.33;4.83;;;;;;;;;;10413806;28;20197;-68
2024/01/25 21:10:20;;;;;;;16.13;4.13;;;;;;;;;;10413028;28;20213;-68
2024/01/25 21:15:21;;;;;;;17.97;4.53;;;;;;;;;;10411082;28;20762;-68
2024/01/25 21:20:21;;;;;;;17.77;4.50;;;;;;;;;;10414036;28;20287;-68
2024/01/25 21:25:21;;;;;;;17.40;4.87;;;;;;;;;;10410726;28;20197;-68
2024/01/25 21:30:21;;;;;;;17.20;4.40;;;;;;;;;;10412759;28;20208;-68
2024/01/25 21:35:21;;;;;;;16.70;4.97;;;;;;;;;;10413706;28;20219;-68
2024/01/25 21:40:22;;;;;;;24.03;5.17;;;;;;;;;;10411301;28;20296;-68
2024/01/25 21:45:22;;;;;;;16.50;4.90;;;;;;;;;;10408849;28;20197;-68
2024/01/25 21:50:22;;;;;;;16.40;4.70;;;;;;;;;;10411885;28;20236;-68
2024/01/25 21:55:22;;;;;;;22.67;5.10;;;;;;;;;;10409990;28;20307;-68
2024/01/25 22:00:23;;;;;;;22.20;5.80;;;;;;;;;;10406918;28;20466;-68
2024/01/25 22:05:23;;;;;;;19.07;4.80;;;;;;;;;;10408713;28;20184;-67
2024/01/25 22:10:23;;;;;;;24.30;5.43;;;;;;;;;;10411968;28;20561;-67
2024/01/25 22:15:23;;;;;;;15.97;4.87;;;;;;;;;;10411716;28;20338;-68
2024/01/25 22:20:24;;;;;;;27.43;6.00;;;;;;;;;;10409425;28;20809;-67
2024/01/25 22:25:24;;;;;;;26.37;5.47;;;;;;;;;;10390064;28;20540;-68
2024/01/25 22:30:24;;;;;;;22.50;5.10;;;;;;;;;;10411193;28;20259;-68
2024/01/25 22:35:24;;;;;;;25.63;5.30;;;;;;;;;;10411246;28;20212;-67
2024/01/25 22:40:24;;;;;;;23.83;5.23;;;;;;;;;;10410710;28;20701;-67
2024/01/25 22:45:24;;;;;;;21.13;5.50;;;;;;;;;;10406923;28;20693;-67
2024/01/25 22:50:25;;;;;;;22.60;5.77;;;;;;;;;;10410111;28;20228;-67
2024/01/25 22:55:25;;;;;;;19.27;5.40;;;;;;;;;;10410486;28;20644;-67
2024/01/25 23:00:28;;;;;;;21.47;4.73;;;;;;;;;;10405618;28;20320;-68
2024/01/25 23:05:28;;;;;;;17.83;4.73;;;;;;;;;;10405080;28;20180;-67
2024/01/25 23:10:29;;;;;;;23.83;4.83;;;;;;;;;;10408696;28;20208;-67
2024/01/25 23:15:29;;;;;;;24.13;4.47;;;;;;;;;;10409299;28;20220;-67
2024/01/25 23:20:29;;;;;;;20.23;4.53;;;;;;;;;;10408165;28;20211;-67
2024/01/25 23:25:30;;;;;;;19.03;4.63;;;;;;;;;;10412285;28;20192;-67
2024/01/25 23:30:30;;;;;;;17.03;5.40;;;;;;;;;;10409382;28;20691;-68
2024/01/25 23:35:30;;;;;;;15.73;4.83;;;;;;;;;;10408628;28;20219;-68
2024/01/25 23:40:31;;;;;;;30.60;5.40;;;;;;;;;;10404773;28;20706;-68
2024/01/25 23:45:32;;;;;;;24.43;5.33;;;;;;;;;;10408730;28;20277;-67
2024/01/25 23:50:32;;;;;;;20.37;5.10;;;;;;;;;;10408075;28;20260;-67
2024/01/25 23:55:32;;;;;;;18.07;4.83;;;;;;;;;;10408496;28;20232;-67
